Time;durP1;ratioP1;P1;durP2;ratioP2;P2;SDS_P1;SDS_P2;PMS_P1;PMS_P2;Temp;Humidity;BMP_temperature;BMP_pressure;BME280_temperature;BME280_humidity;BME280_pressure;Samples;Min_cycle;Max_cycle;Signal;HPM_P1;HPM_P2
2022/10/04 00:01:53;;;;;;;1999.90;999.90;;;7.00;99.90;;;;;;5070072;28;20438;-67
2022/10/04 00:04:25;;;;;;;1999.90;999.90;;;7.00;99.90;;;;;;5070522;28;20479;-67
2022/10/04 00:06:58;;;;;;;1999.90;999.90;;;7.00;99.90;;;;;;5070625;28;21289;-67
2022/10/04 00:09:31;;;;;;;1999.90;999.90;;;6.90;99.90;;;;;;5070477;28;20871;-67
2022/10/04 00:12:01;;;;;;;1999.90;999.90;;;7.00;99.90;;;;;;5070394;28;20450;-67
2022/10/04 00:14:31;;;;;;;1999.90;999.90;;;7.00;99.90;;;;;;5070979;28;20847;-67
2022/10/04 00:16:59;;;;;;;1999.90;999.90;;;6.90;99.90;;;;;;5070506;28;20447;-67
2022/10/04 00:19:42;;;;;;;1999.90;999.90;;;6.90;99.90;;;;;;5070425;28;20450;-67
2022/10/04 00:22:16;;;;;;;1999.90;999.90;;;6.90;99.90;;;;;;5070159;28;20462;-67
2022/10/04 00:25:19;;;;;;;1999.90;999.90;;;6.80;99.90;;;;;;5070261;28;20497;-67
2022/10/04 00:28:24;;;;;;;1999.90;999.90;;;6.80;99.90;;;;;;5070365;28;20809;-66
2022/10/04 00:31:09;;;;;;;1999.90;999.90;;;6.90;99.90;;;;;;5070258;28;20584;-66
2022/10/04 00:33:38;;;;;;;1999.90;999.90;;;6.80;99.90;;;;;;5070147;28;20439;-66
2022/10/04 00:36:37;;;;;;;1999.90;999.90;;;6.70;99.90;;;;;;5069883;28;20480;-66
2022/10/04 00:39:18;;;;;;;1999.90;999.90;;;6.70;99.90;;;;;;5070197;28;20534;-66
2022/10/04 00:41:57;;;;;;;1999.90;999.90;;;6.80;99.90;;;;;;5069880;28;20454;-66
2022/10/04 00:44:31;;;;;;;1999.90;999.90;;;6.70;99.90;;;;;;5069911;28;20482;-67
2022/10/04 00:47:02;;;;;;;1999.90;999.90;;;6.70;99.90;;;;;;5069977;28;20960;-67
2022/10/04 00:49:34;;;;;;;1999.90;999.90;;;6.60;99.90;;;;;;5070209;28;20458;-67
2022/10/04 00:52:05;;;;;;;1999.90;999.90;;;6.50;99.90;;;;;;5069762;28;20443;-66
2022/10/04 00:54:37;;;;;;;1999.90;999.90;;;6.50;99.90;;;;;;5070025;28;20466;-67
2022/10/04 00:57:07;;;;;;;1999.90;999.90;;;6.50;99.90;;;;;;5070187;28;20447;-67
2022/10/04 00:59:38;;;;;;;1999.90;999.90;;;6.40;99.90;;;;;;5070401;28;20447;-67
2022/10/04 01:02:14;;;;;;;1999.90;999.90;;;6.40;99.90;;;;;;5069852;28;20443;-66
2022/10/04 01:04:47;;;;;;;1999.90;999.90;;;6.40;99.90;;;;;;5069851;28;20530;-67
2022/10/04 01:07:17;;;;;;;1999.90;999.90;;;6.30;99.90;;;;;;5069775;28;20805;-66
2022/10/04 01:09:50;;;;;;;1999.90;999.90;;;6.30;99.90;;;;;;5069834;28;20443;-67
2022/10/04 01:12:28;;;;;;;1999.90;999.90;;;6.30;99.90;;;;;;5069549;28;20573;-67
2022/10/04 01:15:03;;;;;;;1999.90;999.90;;;6.20;99.90;;;;;;5069225;28;20815;-66
2022/10/04 01:17:31;;;;;;;1999.90;999.90;;;6.30;99.90;;;;;;5069786;28;20443;-66
2022/10/04 01:19:58;;;;;;;1999.90;999.90;;;6.20;99.90;;;;;;5069559;28;20447;-67
2022/10/04 01:22:37;;;;;;;1999.90;999.90;;;6.30;99.90;;;;;;5069230;28;20791;-66
2022/10/04 01:25:05;;;;;;;1999.90;999.90;;;6.30;99.90;;;;;;5069608;28;20868;-67
2022/10/04 01:27:35;;;;;;;1999.90;999.90;;;6.30;99.90;;;;;;5069459;28;20450;-66
2022/10/04 01:30:08;;;;;;;1999.90;999.90;;;6.20;99.90;;;;;;5069616;28;20856;-67
2022/10/04 01:32:35;;;;;;;1999.90;999.90;;;6.20;99.90;;;;;;5069071;28;20458;-67
2022/10/04 01:35:02;;;;;;;1999.90;999.90;;;6.20;99.90;;;;;;5069471;28;20471;-66
2022/10/04 01:37:29;;;;;;;1999.90;999.90;;;6.20;99.90;;;;;;5069303;28;20521;-66
2022/10/04 01:39:57;;;;;;;1999.90;999.90;;;6.20;99.90;;;;;;5069537;28;20446;-67
2022/10/04 01:42:29;;;;;;;1999.90;999.90;;;6.20;99.90;;;;;;5069063;28;20483;-67
2022/10/04 01:45:01;;;;;;;1999.90;999.90;;;6.20;99.90;;;;;;5069289;28;20486;-66
2022/10/04 01:47:33;;;;;;;1999.90;999.90;;;6.30;99.90;;;;;;5069298;28;20806;-67
2022/10/04 01:50:04;;;;;;;1999.90;999.90;;;6.40;99.90;;;;;;5069421;28;20447;-67
2022/10/04 01:52:35;;;;;;;1999.90;999.90;;;6.20;99.90;;;;;;5068991;28;20538;-67
2022/10/04 01:55:07;;;;;;;1999.90;999.90;;;6.10;99.90;;;;;;5069153;28;20482;-67
2022/10/04 01:57:38;;;;;;;1999.90;999.90;;;6.10;99.90;;;;;;5069132;28;20447;-67
2022/10/04 02:00:07;;;;;;;1999.90;999.90;;;6.00;99.90;;;;;;5069458;28;20474;-66
2022/10/04 02:02:39;;;;;;;1999.90;999.90;;;6.00;99.90;;;;;;5069085;28;20826;-66
2022/10/04 02:05:10;;;;;;;1999.90;999.90;;;6.00;99.90;;;;;;5069068;28;20485;-67
2022/10/04 02:07:38;;;;;;;1999.90;999.90;;;6.00;99.90;;;;;;5069240;28;20882;-66
2022/10/04 02:10:10;;;;;;;1999.90;999.90;;;6.00;99.90;;;;;;5069209;28;20447;-67
2022/10/04 02:12:42;;;;;;;1999.90;999.90;;;6.00;99.90;;;;;;5068882;28;20443;-67
2022/10/04 02:15:10;;;;;;;1999.90;999.90;;;6.00;99.90;;;;;;5068971;28;20470;-66
2022/10/04 02:17:41;;;;;;;1999.90;999.90;;;6.00;99.90;;;;;;5069111;28;20518;-67
2022/10/04 02:20:13;;;;;;;1999.90;999.90;;;6.00;99.90;;;;;;5068964;28;20486;-67
2022/10/04 02:22:42;;;;;;;1999.90;999.90;;;6.10;99.90;;;;;;5068673;28;20501;-66
2022/10/04 02:25:12;;;;;;;1999.90;999.90;;;6.10;99.90;;;;;;5070524;28;20544;-66
2022/10/04 02:27:39;;;;;;;1999.90;999.90;;;6.10;99.90;;;;;;5072724;28;20478;-67
2022/10/04 02:30:09;;;;;;;1999.90;999.90;;;6.10;99.90;;;;;;5072507;28;20483;-67
2022/10/04 02:35:23;;;;;;;1999.90;999.90;;;6.00;99.90;;;;;;5072253;28;20836;-67
2022/10/04 02:37:54;;;;;;;1999.90;999.90;;;6.10;99.90;;;;;;5072301;28;20454;-67
2022/10/04 02:40:30;;;;;;;1999.90;999.90;;;6.00;99.90;;;;;;5072501;28;20443;-67
2022/10/04 02:43:00;;;;;;;1999.90;999.90;;;6.00;99.90;;;;;;5072126;28;20916;-66
2022/10/04 02:45:37;;;;;;;1999.90;999.90;;;6.00;99.90;;;;;;5071974;28;20483;-67
2022/10/04 02:48:12;;;;;;;1999.90;999.90;;;6.00;99.90;;;;;;5072421;28;20826;-67
2022/10/04 02:50:47;;;;;;;1999.90;999.90;;;6.00;99.90;;;;;;5072220;28;20450;-66
2022/10/04 02:53:21;;;;;;;1999.90;999.90;;;5.90;99.90;;;;;;5072257;28;20453;-67
2022/10/04 02:55:49;;;;;;;1999.90;999.90;;;5.90;99.90;;;;;;5072122;28;20467;-66
2022/10/04 02:58:20;;;;;;;1999.90;999.90;;;6.00;99.90;;;;;;5072434;28;20925;-66
2022/10/04 03:00:49;;;;;;;1999.90;999.90;;;5.90;99.90;;;;;;5072196;28;20447;-67
2022/10/04 03:03:21;;;;;;;1999.90;999.90;;;5.90;99.90;;;;;;5072041;28;20451;-67
2022/10/04 03:05:59;;;;;;;1999.90;999.90;;;5.90;99.90;;;;;;5070397;28;20486;-66
2022/10/04 03:08:28;;;;;;;1999.90;999.90;;;5.90;99.90;;;;;;5071797;28;20447;-66
2022/10/04 03:10:58;;;;;;;1999.90;999.90;;;5.90;99.90;;;;;;5070473;28;20447;-67
2022/10/04 03:13:26;;;;;;;1999.90;999.90;;;5.90;99.90;;;;;;5071616;28;20443;-66
2022/10/04 03:15:53;;;;;;;1999.90;999.90;;;5.80;99.90;;;;;;5071481;28;21044;-67
2022/10/04 03:18:20;;;;;;;1999.90;999.90;;;5.80;99.90;;;;;;5071569;28;20961;-67
2022/10/04 03:20:48;;;;;;;1999.90;999.90;;;5.80;99.90;;;;;;5069044;28;20443;-67
2022/10/04 03:23:17;;;;;;;1999.90;999.90;;;5.80;99.90;;;;;;5070811;28;20470;-67
2022/10/04 03:25:49;;;;;;;1999.90;999.90;;;5.80;99.90;;;;;;5069056;28;20479;-66
2022/10/04 03:28:18;;;;;;;1999.90;999.90;;;5.80;99.90;;;;;;5071009;28;20436;-67
2022/10/04 03:30:46;;;;;;;1999.90;999.90;;;5.80;99.90;;;;;;5071289;28;20455;-67
2022/10/04 03:33:18;;;;;;;1999.90;999.90;;;5.90;99.90;;;;;;5070886;28;20457;-67
2022/10/04 03:35:48;;;;;;;1999.90;999.90;;;5.90;99.90;;;;;;5070734;28;20467;-66
2022/10/04 03:38:17;;;;;;;1999.90;999.90;;;5.90;99.90;;;;;;5070912;28;20446;-67
2022/10/04 03:40:52;;;;;;;1999.90;999.90;;;5.90;99.90;;;;;;5069777;28;20443;-66
2022/10/04 03:43:24;;;;;;;1999.90;999.90;;;5.90;99.90;;;;;;5070554;28;20449;-65
2022/10/04 03:45:52;;;;;;;1999.90;999.90;;;5.80;99.90;;;;;;5070883;28;20490;-66
2022/10/04 03:48:27;;;;;;;1999.90;999.90;;;5.80;99.90;;;;;;5070832;28;20454;-67
2022/10/04 03:50:54;;;;;;;1999.90;999.90;;;5.80;99.90;;;;;;5070665;28;20710;-67
2022/10/04 03:53:29;;;;;;;1999.90;999.90;;;5.80;99.90;;;;;;5070578;28;20948;-66
2022/10/04 03:55:57;;;;;;;1999.90;999.90;;;5.80;99.90;;;;;;5070612;28;20458;-66
2022/10/04 03:58:28;;;;;;;1999.90;999.90;;;5.90;99.90;;;;;;5070745;28;20451;-67
2022/10/04 04:01:11;;;;;;;1999.90;999.90;;;5.90;99.90;;;;;;5070539;28;20472;-67
2022/10/04 04:03:48;;;;;;;1999.90;999.90;;;5.90;99.90;;;;;;5070292;28;20883;-67
2022/10/04 04:06:18;;;;;;;1999.90;999.90;;;5.90;99.90;;;;;;5070527;28;20483;-67
2022/10/04 04:08:49;;;;;;;1999.90;999.90;;;5.80;99.90;;;;;;5069710;28;20447;-67
2022/10/04 04:11:21;;;;;;;1999.90;999.90;;;5.80;99.90;;;;;;5070073;28;20439;-66
2022/10/04 04:13:57;;;;;;;1999.90;999.90;;;5.80;99.90;;;;;;5070301;28;20442;-66
2022/10/04 04:16:25;;;;;;;1999.90;999.90;;;5.70;99.90;;;;;;5070181;28;20463;-66
2022/10/04 04:18:53;;;;;;;1999.90;999.90;;;5.70;99.90;;;;;;5070330;28;20575;-67
2022/10/04 04:21:23;;;;;;;1999.90;999.90;;;5.90;99.90;;;;;;5070021;28;20500;-66
2022/10/04 04:23:53;;;;;;;1999.90;999.90;;;5.90;99.90;;;;;;5070158;28;20482;-67
2022/10/04 04:26:26;;;;;;;1999.90;999.90;;;5.90;99.90;;;;;;5069820;28;20993;-67
2022/10/04 04:29:02;;;;;;;1999.90;999.90;;;6.00;99.90;;;;;;5070012;28;20508;-67
2022/10/04 04:31:35;;;;;;;1999.90;999.90;;;6.20;99.90;;;;;;5069774;28;20447;-67
2022/10/04 04:34:05;;;;;;;1999.90;999.90;;;6.20;99.90;;;;;;5065581;28;20455;-67
2022/10/04 04:36:39;;;;;;;1999.90;999.90;;;6.20;99.90;;;;;;5068328;28;20486;-67
2022/10/04 04:41:58;;;;;;;1999.90;999.90;;;6.20;99.90;;;;;;5069933;28;20569;-67
2022/10/04 04:44:27;;;;;;;1999.90;999.90;;;6.10;99.90;;;;;;5069665;28;20463;-66
2022/10/04 04:46:59;;;;;;;1999.90;999.90;;;6.00;99.90;;;;;;5069733;28;20479;-67
2022/10/04 04:49:28;;;;;;;1999.90;999.90;;;5.90;99.90;;;;;;5069483;28;20497;-65
2022/10/04 04:51:56;;;;;;;1999.90;999.90;;;5.90;99.90;;;;;;5069375;28;20440;-66
2022/10/04 04:54:25;;;;;;;1999.90;999.90;;;5.80;99.90;;;;;;5068118;28;20988;-68
2022/10/04 04:56:56;;;;;;;1999.90;999.90;;;5.80;99.90;;;;;;5064979;28;20447;-67
2022/10/04 04:59:25;;;;;;;1999.90;999.90;;;5.70;99.90;;;;;;5067285;28;20443;-68
2022/10/04 05:01:54;;;;;;;1999.90;999.90;;;5.60;99.90;;;;;;5054105;28;20493;-67
2022/10/04 05:04:22;;;;;;;1999.90;999.90;;;5.60;99.90;;;;;;5067090;28;20447;-66
2022/10/04 05:07:01;;;;;;;1999.90;999.90;;;5.50;99.90;;;;;;5068928;28;20479;-67
2022/10/04 05:09:30;;;;;;;1999.90;999.90;;;5.50;99.90;;;;;;5050436;28;20455;-66
2022/10/04 05:12:06;;;;;;;1999.90;999.90;;;5.60;99.90;;;;;;5051812;28;20444;-66
2022/10/04 05:14:34;;;;;;;1999.90;999.90;;;5.60;99.90;;;;;;5059191;28;20563;-66
2022/10/04 05:17:02;;;;;;;1999.90;999.90;;;5.60;99.90;;;;;;5061028;28;20443;-65
2022/10/04 05:19:33;;;;;;;1999.90;999.90;;;5.60;99.90;;;;;;5056473;28;20447;-67
2022/10/04 05:22:02;;;;;;;1999.90;999.90;;;5.60;99.90;;;;;;5065712;28;20937;-67
2022/10/04 05:24:32;;;;;;;1999.90;999.90;;;5.60;99.90;;;;;;5069455;28;20467;-66
2022/10/04 05:27:02;;;;;;;1999.90;999.90;;;5.60;99.90;;;;;;5069466;28;20474;-67
2022/10/04 05:29:32;;;;;;;1999.90;999.90;;;5.50;99.90;;;;;;5069835;28;20451;-66
2022/10/04 05:32:22;;;;;;;1999.90;999.90;;;5.50;99.90;;;;;;5069016;28;20670;-66
2022/10/04 05:34:50;;;;;;;1999.90;999.90;;;5.60;99.90;;;;;;5049579;28;20476;-66
2022/10/04 05:37:31;;;;;;;1999.90;999.90;;;5.60;99.90;;;;;;5049271;28;20826;-66
2022/10/04 05:40:06;;;;;;;1999.90;999.90;;;5.80;99.90;;;;;;5049334;28;20448;-67
2022/10/04 05:42:38;;;;;;;1999.90;999.90;;;5.90;99.90;;;;;;5059773;28;20957;-65
2022/10/04 05:45:16;;;;;;;1999.90;999.90;;;5.90;99.90;;;;;;5063241;28;20476;-65
2022/10/04 05:47:46;;;;;;;1999.90;999.90;;;6.10;99.90;;;;;;5063682;28;20448;-65
2022/10/04 05:50:18;;;;;;;1999.90;999.90;;;6.20;99.90;;;;;;5067575;28;20439;-65
2022/10/04 05:52:47;;;;;;;1999.90;999.90;;;6.20;99.90;;;;;;5067399;28;20443;-66
2022/10/04 05:55:20;;;;;;;1999.90;999.90;;;6.20;99.90;;;;;;5068104;28;20467;-66
2022/10/04 05:57:58;;;;;;;1999.90;999.90;;;6.20;99.90;;;;;;5069101;28;20454;-66
2022/10/04 06:00:37;;;;;;;1999.90;999.90;;;6.20;99.90;;;;;;5069317;28;20449;-66
2022/10/04 06:03:35;;;;;;;1999.90;999.90;;;6.20;99.90;;;;;;5066831;28;20431;-66
2022/10/04 06:06:11;;;;;;;1999.90;999.90;;;6.30;99.90;;;;;;5070103;28;20875;-66
2022/10/04 06:08:48;;;;;;;1999.90;999.90;;;6.50;99.90;;;;;;5072557;28;20443;-65
2022/10/04 06:11:26;;;;;;;1999.90;999.90;;;6.70;99.90;;;;;;5072569;28;20477;-66
2022/10/04 06:14:29;;;;;;;1999.90;999.90;;;6.80;99.90;;;;;;5072280;28;20455;-66
2022/10/04 06:17:09;;;;;;;1999.90;999.90;;;6.90;99.90;;;;;;5071319;28;20467;-66
2022/10/04 06:20:28;;;;;;;1999.90;999.90;;;7.00;99.90;;;;;;5060457;28;20439;-66
2022/10/04 06:22:59;;;;;;;1999.90;999.90;;;7.10;99.90;;;;;;5056358;28;20451;-66
2022/10/04 06:25:29;;;;;;;1999.90;999.90;;;7.20;99.90;;;;;;5071935;28;20462;-66
2022/10/04 06:28:05;;;;;;;1999.90;999.90;;;7.30;99.90;;;;;;5072371;28;20436;-66
2022/10/04 06:30:44;;;;;;;1999.90;999.90;;;7.30;99.90;;;;;;5072320;28;20500;-66
2022/10/04 06:33:28;;;;;;;1999.90;999.90;;;7.40;99.90;;;;;;5072028;28;20447;-66
2022/10/04 06:36:29;;;;;;;1999.90;999.90;;;7.50;99.90;;;;;;5072233;28;21048;-66
2022/10/04 06:39:21;;;;;;;1999.90;999.90;;;7.60;99.90;;;;;;5072229;28;20446;-66
2022/10/04 06:42:17;;;;;;;1999.90;999.90;;;7.70;99.90;;;;;;5057695;28;20450;-66
2022/10/04 06:45:09;;;;;;;1999.90;999.90;;;7.80;99.90;;;;;;5072138;28;20467;-67
2022/10/04 06:47:56;;;;;;;1999.90;999.90;;;7.90;99.90;;;;;;5066816;28;20508;-66
2022/10/04 06:50:32;;;;;;;1999.90;999.90;;;8.10;99.90;;;;;;5071720;28;20492;-66
2022/10/04 06:53:24;;;;;;;1999.90;999.90;;;8.20;99.90;;;;;;5070387;28;20531;-66
2022/10/04 06:56:32;;;;;;;1999.90;999.90;;;8.40;99.90;;;;;;5069679;28;20973;-66
2022/10/04 06:59:14;;;;;;;1999.90;999.90;;;8.60;99.90;;;;;;5064134;28;20807;-66
2022/10/04 07:01:49;;;;;;;1999.90;999.90;;;8.60;99.90;;;;;;5077285;28;20435;-66
2022/10/04 07:04:25;;;;;;;1999.90;999.90;;;8.70;99.90;;;;;;5071563;28;20449;-67
2022/10/04 07:07:22;;;;;;;1999.90;999.90;;;8.80;99.90;;;;;;5058897;28;20486;-67
2022/10/04 07:09:55;;;;;;;1999.90;999.90;;;8.80;99.90;;;;;;5071410;28;20435;-66
2022/10/04 07:12:23;;;;;;;1999.90;999.90;;;8.80;99.90;;;;;;5069380;28;20941;-67
2022/10/04 07:14:53;;;;;;;1999.90;999.90;;;8.90;99.90;;;;;;5071333;28;20997;-66
2022/10/04 07:17:27;;;;;;;1999.90;999.90;;;9.10;99.90;;;;;;5069999;28;20442;-66
2022/10/04 07:19:55;;;;;;;1999.90;999.90;;;9.10;99.90;;;;;;5071796;28;20455;-66
2022/10/04 07:22:28;;;;;;;1999.90;999.90;;;9.00;99.90;;;;;;5071617;28;20474;-66
2022/10/04 07:25:13;;;;;;;1999.90;999.90;;;9.20;99.90;;;;;;5071456;28;20455;-67
2022/10/04 07:29:19;;;;;;;1999.90;999.90;;;9.30;99.90;;;;;;5071381;28;20479;-66
2022/10/04 07:30:42;;;;;;;1999.90;999.90;;;9.40;99.90;;;;;;5071000;28;21036;-67
2022/10/04 07:33:16;;;;;;;1999.90;999.90;;;9.50;99.90;;;;;;5071792;28;20535;-67
2022/10/04 07:35:47;;;;;;;1999.90;999.90;;;9.50;99.90;;;;;;5060036;28;20834;-67
2022/10/04 07:38:19;;;;;;;1999.90;999.90;;;9.60;99.90;;;;;;5060120;28;20475;-67
2022/10/04 07:41:02;;;;;;;1999.90;999.90;;;9.70;99.90;;;;;;5053245;28;20444;-66
2022/10/04 07:43:32;;;;;;;1999.90;999.90;;;9.80;99.90;;;;;;5069839;28;20957;-67
2022/10/04 07:46:05;;;;;;;1999.90;999.90;;;10.00;99.90;;;;;;5054853;28;20462;-67
2022/10/04 07:48:32;;;;;;;1999.90;999.90;;;10.20;99.90;;;;;;5070792;28;20439;-67
2022/10/04 07:51:08;;;;;;;1999.90;999.90;;;10.40;99.90;;;;;;5070736;28;20439;-67
2022/10/04 07:53:43;;;;;;;1999.90;999.90;;;10.20;99.90;;;;;;5070602;28;20443;-67
2022/10/04 07:56:16;;;;;;;1999.90;999.90;;;10.40;99.90;;;;;;5070646;28;20447;-67
2022/10/04 07:58:53;;;;;;;1999.90;999.90;;;10.60;99.90;;;;;;5070570;28;20451;-67
2022/10/04 08:01:28;;;;;;;1999.90;999.90;;;10.90;99.90;;;;;;5069621;28;20446;-67
2022/10/04 08:04:11;;;;;;;1999.90;999.90;;;11.10;99.90;;;;;;5054046;28;20196;-67
2022/10/04 08:06:55;;;;;;;1999.90;999.90;;;11.40;99.90;;;;;;5070453;28;20485;-67
2022/10/04 08:09:32;;;;;;;1999.90;999.90;;;11.50;99.90;;;;;;5070308;28;20451;-67
2022/10/04 08:12:07;;;;;;;1999.90;999.90;;;11.70;99.90;;;;;;5054265;28;20458;-67
2022/10/04 08:14:51;;;;;;;1999.90;999.90;;;11.90;99.90;;;;;;5070279;28;20474;-67
2022/10/04 08:17:31;;;;;;;1999.90;999.90;;;12.00;99.90;;;;;;5070143;28;20451;-67
2022/10/04 08:20:06;;;;;;;1999.90;999.90;;;12.20;99.90;;;;;;5054303;28;20446;-66
2022/10/04 08:22:42;;;;;;;1999.90;999.90;;;12.40;99.90;;;;;;5069683;28;20450;-67
2022/10/04 08:25:18;;;;;;;1999.90;999.90;;;12.40;99.90;;;;;;5070007;28;20478;-67
2022/10/04 08:30:59;;;;;;;1999.90;999.90;;;12.40;99.90;;;;;;5069815;28;20473;-67
2022/10/04 08:33:43;;;;;;;1999.90;999.90;;;12.40;99.90;;;;;;5069829;28;20197;-67
2022/10/04 08:36:19;;;;;;;1999.90;999.90;;;12.30;99.90;;;;;;5055593;28;20479;-68
2022/10/04 08:38:50;;;;;;;1999.90;999.90;;;12.30;99.90;;;;;;5070055;28;20896;-69
2022/10/04 08:42:03;;;;;;;1999.90;999.90;;;12.40;99.90;;;;;;5069740;28;20492;-68
2022/10/04 08:45:02;;;;;;;1999.90;999.90;;;12.60;99.90;;;;;;5052099;28;20521;-68
2022/10/04 08:48:10;;;;;;;1999.90;999.90;;;12.70;99.90;;;;;;5063861;28;20483;-67
2022/10/04 08:51:22;;;;;;;1999.90;999.90;;;12.50;99.90;;;;;;5069621;28;20438;-67
2022/10/04 08:54:19;;;;;;;1999.90;999.90;;;12.60;99.90;;;;;;5007544;28;20977;-67
2022/10/04 08:57:05;;;;;;;1999.90;999.90;;;12.60;99.90;;;;;;5067993;28;20447;-67
2022/10/04 08:59:56;;;;;;;1999.90;999.90;;;12.70;99.90;;;;;;5069713;28;20826;-67
2022/10/04 09:03:01;;;;;;;1999.90;999.90;;;12.80;99.90;;;;;;5066870;28;20479;-67
2022/10/04 09:05:46;;;;;;;1999.90;999.90;;;12.90;99.90;;;;;;5069612;28;20467;-68
2022/10/04 09:08:42;;;;;;;1999.90;999.90;;;13.20;99.90;;;;;;5053506;28;20478;-67
2022/10/04 09:11:24;;;;;;;1999.90;999.90;;;13.50;99.90;;;;;;5067039;28;20576;-67
2022/10/04 09:14:09;;;;;;;1999.90;999.90;;;13.70;99.90;;;;;;5063891;28;20476;-67
2022/10/04 09:16:46;;;;;;;1999.90;999.90;;;13.90;99.90;;;;;;5068844;28;20439;-67
2022/10/04 09:19:38;;;;;;;1999.90;999.90;;;14.20;99.90;;;;;;5069140;28;20495;-67
2022/10/04 09:22:18;;;;;;;1999.90;999.90;;;14.40;99.90;;;;;;5069507;28;20462;-67
2022/10/04 09:25:24;;;;;;;1999.90;999.90;;;14.70;99.90;;;;;;5069786;28;20519;-67
2022/10/04 09:28:09;;;;;;;1999.90;999.90;;;15.00;99.90;;;;;;5040331;28;20845;-67
2022/10/04 09:30:49;;;;;;;1999.90;999.90;;;15.20;99.90;;;;;;5069683;28;20465;-66
2022/10/04 09:33:33;;;;;;;1999.90;999.90;;;15.20;99.90;;;;;;5069958;28;20447;-67
2022/10/04 09:36:20;;;;;;;1999.90;999.90;;;15.10;99.90;;;;;;5073070;28;20486;-67
2022/10/04 09:39:09;;;;;;;1999.90;999.90;;;15.40;99.90;;;;;;5073756;28;20447;-67
2022/10/04 09:41:47;;;;;;;1999.90;999.90;;;15.60;99.90;;;;;;5070985;28;20452;-66
2022/10/04 09:45:06;;;;;;;1999.90;999.90;;;15.90;99.90;;;;;;5073841;28;20447;-67
2022/10/04 09:47:44;;;;;;;1999.90;999.90;;;16.30;99.90;;;;;;5073254;28;20483;-67
2022/10/04 09:50:38;;;;;;;1999.90;999.90;;;16.40;99.90;;;;;;5073828;28;20453;-67
2022/10/04 09:53:34;;;;;;;1999.90;999.90;;;16.40;99.90;;;;;;5073174;28;20439;-66
2022/10/04 09:56:18;;;;;;;1999.90;999.90;;;16.40;99.90;;;;;;5073037;28;20471;-67
2022/10/04 09:59:10;;;;;;;1999.90;999.90;;;16.50;99.90;;;;;;5073344;28;20454;-67
2022/10/04 10:01:46;;;;;;;1999.90;999.90;;;16.70;99.90;;;;;;5072725;28;20948;-66
2022/10/04 10:04:34;;;;;;;1999.90;999.90;;;17.10;99.90;;;;;;5073206;28;20438;-67
2022/10/04 10:07:16;;;;;;;1999.90;999.90;;;17.20;99.90;;;;;;5072955;28;20499;-67
2022/10/04 10:15:58;;;;;;;1999.90;999.90;;;17.70;99.90;;;;;;5072778;28;20495;-67
2022/10/04 10:18:37;;;;;;;1999.90;999.90;;;18.30;99.90;;;;;;5072745;28;20439;-66
2022/10/04 10:21:17;;;;;;;1999.90;999.90;;;18.70;99.90;;;;;;5072554;28;20945;-67
2022/10/04 10:24:26;;;;;;;1999.90;999.90;;;18.80;99.90;;;;;;5072654;28;20442;-67
2022/10/04 10:27:38;;;;;;;1999.90;999.90;;;19.10;99.90;;;;;;5065205;28;20490;-67
2022/10/04 10:30:20;;;;;;;1999.90;999.90;;;19.70;99.90;;;;;;5010226;28;20952;-67
2022/10/04 10:33:30;;;;;;;1999.90;999.90;;;19.90;99.90;;;;;;5070097;28;20980;-67
2022/10/04 10:36:20;;;;;;;1999.90;999.90;;;20.10;99.90;;;;;;5072180;28;20478;-66
2022/10/04 10:38:57;;;;;;;1999.90;999.90;;;20.30;99.90;;;;;;5072243;28;20447;-67
2022/10/04 10:42:05;;;;;;;1999.90;999.90;;;20.40;99.90;;;;;;5072041;28;20455;-67
2022/10/04 10:44:58;;;;;;;1999.90;999.90;;;20.60;99.90;;;;;;5067149;28;20479;-67
2022/10/04 10:47:36;;;;;;;1999.90;999.90;;;20.90;99.90;;;;;;5071921;28;20478;-67
2022/10/04 10:51:02;;;;;;;1999.90;999.90;;;21.20;99.90;;;;;;5072547;28;20455;-67
2022/10/04 10:54:29;;;;;;;1999.90;999.90;;;21.80;99.90;;;;;;5049430;28;20474;-67
2022/10/04 10:57:09;;;;;;;1999.90;999.90;;;21.80;98.80;;;;;;5009833;28;20648;-67
2022/10/04 11:00:03;;;;;;;1999.90;999.90;;;21.60;99.90;;;;;;5072040;28;20446;-67
2022/10/04 11:02:49;;;;;;;1999.90;999.90;;;21.80;99.90;;;;;;5071586;28;20454;-67
2022/10/04 11:05:48;;;;;;;1999.90;999.90;;;22.40;99.80;;;;;;5072033;28;20459;-67
2022/10/04 11:08:45;;;;;;;1999.90;999.90;;;23.40;98.30;;;;;;5071749;28;20842;-67
2022/10/04 11:11:29;;;;;;;1999.90;999.90;;;24.10;97.10;;;;;;5071922;28;20450;-67
2022/10/04 11:14:19;;;;;;;1999.90;999.90;;;23.80;93.90;;;;;;5071979;28;20451;-67
2022/10/04 11:17:14;;;;;;;1999.90;999.90;;;23.50;95.10;;;;;;5071655;28;20447;-67
2022/10/04 11:20:17;;;;;;;1999.90;999.90;;;23.50;96.90;;;;;;5071647;28;20971;-67
2022/10/04 11:23:20;;;;;;;1999.90;999.90;;;24.20;97.00;;;;;;5071286;28;20454;-67
2022/10/04 11:26:16;;;;;;;1999.90;999.90;;;25.20;94.50;;;;;;5071403;28;20466;-67
2022/10/04 11:28:48;;;;;;;1999.90;999.90;;;25.90;92.00;;;;;;5045681;28;20495;-67
2022/10/04 11:31:56;;;;;;;1999.90;999.90;;;26.40;92.60;;;;;;5071453;28;20782;-67
2022/10/04 11:35:02;;;;;;;1999.90;999.90;;;26.80;90.60;;;;;;5071284;28;20451;-67
2022/10/04 11:37:48;;;;;;;1999.90;999.90;;;26.40;90.00;;;;;;5071333;28;20956;-67
2022/10/04 11:40:30;;;;;;;1999.90;999.90;;;26.80;90.70;;;;;;5071671;28;20454;-67
2022/10/04 11:43:18;;;;;;;1999.90;999.90;;;27.10;89.00;;;;;;5071299;28;20443;-67
2022/10/04 11:46:03;;;;;;;1999.90;999.90;;;27.60;87.80;;;;;;5071254;28;20471;-67
2022/10/04 11:48:42;;;;;;;1999.90;999.90;;;28.30;85.30;;;;;;5071111;28;20853;-67
2022/10/04 11:51:46;;;;;;;1999.90;999.90;;;29.00;82.70;;;;;;5071064;28;20445;-66
2022/10/04 11:55:01;;;;;;;1999.90;999.90;;;28.10;80.90;;;;;;5046562;28;20952;-67
2022/10/04 11:57:35;;;;;;;1999.90;999.90;;;27.50;83.10;;;;;;5070206;28;20825;-67
2022/10/04 12:00:11;;;;;;;1999.90;999.90;;;27.40;85.00;;;;;;5070872;28;20447;-67
2022/10/04 12:02:56;;;;;;;1999.90;999.90;;;27.00;85.00;;;;;;5070275;28;20446;-67
2022/10/04 12:06:03;;;;;;;1999.90;999.90;;;26.30;86.20;;;;;;5071029;28;20779;-67
2022/10/04 12:08:41;;;;;;;1999.90;999.90;;;26.40;88.70;;;;;;5070609;28;21019;-67
2022/10/04 12:14:25;;;;;;;1999.90;999.90;;;27.80;83.80;;;;;;5070219;28;20429;-67
2022/10/04 12:17:18;;;;;;;1999.90;999.90;;;29.00;82.20;;;;;;5070582;28;20453;-67
2022/10/04 12:20:16;;;;;;;1999.90;999.90;;;29.90;80.20;;;;;;5070649;28;20871;-68
2022/10/04 12:23:02;;;;;;;1999.90;999.90;;;29.50;76.60;;;;;;5067789;28;20455;-66
2022/10/04 12:25:52;;;;;;;1999.90;999.90;;;29.20;79.10;;;;;;5070319;28;20463;-67
2022/10/04 12:28:48;;;;;;;1999.90;999.90;;;29.00;78.90;;;;;;5070575;28;20475;-67
2022/10/04 12:31:23;;;;;;;1999.90;999.90;;;28.40;81.20;;;;;;5070068;28;20446;-67
2022/10/04 12:33:59;;;;;;;1999.90;999.90;;;27.20;81.30;;;;;;5069941;28;20449;-67
2022/10/04 12:36:49;;;;;;;1999.90;999.90;;;26.40;87.30;;;;;;5069766;28;20470;-67
2022/10/04 12:39:31;;;;;;;1999.90;999.90;;;26.30;90.00;;;;;;5070118;28;20933;-67
2022/10/04 12:42:11;;;;;;;1999.90;999.90;;;27.00;88.70;;;;;;5069804;28;20814;-67
2022/10/04 12:44:54;;;;;;;1999.90;999.90;;;27.80;85.60;;;;;;5069933;28;20582;-67
2022/10/04 12:47:50;;;;;;;1999.90;999.90;;;28.30;81.40;;;;;;5070186;28;20631;-68
2022/10/04 12:50:27;;;;;;;1999.90;999.90;;;29.60;81.00;;;;;;5069918;28;20815;-67
2022/10/04 12:53:04;;;;;;;1999.90;999.90;;;29.90;77.00;;;;;;5069626;28;20817;-67
2022/10/04 12:55:51;;;;;;;1999.90;999.90;;;30.50;76.50;;;;;;5070009;28;20466;-67
2022/10/04 12:58:23;;;;;;;1999.90;999.90;;;30.70;74.40;;;;;;5070031;28;20804;-67
2022/10/04 13:00:57;;;;;;;1999.90;999.90;;;30.80;72.40;;;;;;5069699;28;20847;-67
2022/10/04 13:03:33;;;;;;;1999.90;999.90;;;30.20;71.60;;;;;;5069529;28;20474;-67
2022/10/04 13:06:10;;;;;;;1999.90;999.90;;;29.30;72.80;;;;;;5064867;28;20471;-67
2022/10/04 13:08:51;;;;;;;1999.90;999.90;;;27.60;78.60;;;;;;5064621;28;20475;-67
2022/10/04 13:11:31;;;;;;;1999.90;999.90;;;25.70;82.30;;;;;;5065896;28;20447;-67
2022/10/04 13:14:26;;;;;;;1999.90;999.90;;;24.40;88.20;;;;;;5065195;28;20451;-67
2022/10/04 13:17:02;;;;;;;1999.90;999.90;;;23.70;90.20;;;;;;5068585;28;20980;-68
2022/10/04 13:19:35;;;;;;;1999.90;999.90;;;23.10;91.50;;;;;;5063587;28;20961;-68
2022/10/04 13:22:28;;;;;;;1999.90;999.90;;;22.40;92.80;;;;;;5069039;28;20427;-68